createdAt,value
2017-05-24T00:00:00.459Z,1011.44
2017-05-24T00:01:00.483Z,1011.4
2017-05-24T00:02:00.507Z,1011.4
2017-05-24T00:03:00.531Z,1011.65
2017-05-24T00:04:00.555Z,1011.58
2017-05-24T00:05:00.580Z,1011.6
2017-05-24T00:06:00.603Z,1011.57
2017-05-24T00:07:00.628Z,1011.63
2017-05-24T00:09:00.677Z,1011.6
2017-05-24T00:10:00.700Z,1011.64
2017-05-24T00:11:00.724Z,1011.66
2017-05-24T00:12:00.749Z,1011.65
2017-05-24T00:13:00.772Z,1011.6
2017-05-24T00:14:00.796Z,1011.69
2017-05-24T00:15:00.820Z,1011.71
2017-05-24T00:16:00.845Z,1011.66
2017-05-24T00:17:00.868Z,1011.7
2017-05-24T00:18:00.892Z,1011.7
2017-05-24T00:19:00.918Z,1011.64
2017-05-24T00:20:00.940Z,1011.61
2017-05-24T00:21:00.963Z,1011.65
2017-05-24T00:22:00.988Z,1011.61
2017-05-24T00:23:01.012Z,1011.71
2017-05-24T00:25:01.059Z,1011.66
2017-05-24T00:26:01.084Z,1011.72
2017-05-24T00:27:01.108Z,1011.73
2017-05-24T00:28:01.132Z,1011.64
2017-05-24T00:29:01.154Z,1011.7
2017-05-24T00:30:01.178Z,1011.67
2017-05-24T00:31:01.203Z,1011.73
2017-05-24T00:32:01.226Z,1011.66
2017-05-24T00:33:01.250Z,1011.83
2017-05-24T00:34:01.274Z,1011.67
2017-05-24T00:35:01.299Z,1011.72
2017-05-24T00:36:01.321Z,1011.63
2017-05-24T00:37:01.345Z,1011.64
2017-05-24T00:38:01.370Z,1011.78
2017-05-24T00:39:01.392Z,1011.78
2017-05-24T00:41:01.440Z,1011.74
2017-05-24T00:42:01.464Z,1011.72
2017-05-24T00:43:01.488Z,1011.65
2017-05-24T00:44:01.511Z,1011.69
2017-05-24T00:45:01.536Z,1011.65
2017-05-24T00:46:01.558Z,1011.76
2017-05-24T00:47:01.582Z,1011.68
2017-05-24T00:48:01.607Z,1011.73
2017-05-24T00:49:01.630Z,1011.72
2017-05-24T00:50:01.657Z,1011.67
2017-05-24T00:51:01.677Z,1011.59
2017-05-24T00:52:01.701Z,1011.7
2017-05-24T00:53:01.725Z,1011.74
2017-05-24T00:54:01.749Z,1011.74
2017-05-24T00:56:01.796Z,1011.73
2017-05-24T00:57:01.819Z,1011.76
2017-05-24T00:58:01.844Z,1011.7
2017-05-24T00:59:01.867Z,1011.68
2017-05-24T01:00:01.891Z,1011.67
2017-05-24T01:01:01.914Z,1011.71
2017-05-24T01:02:01.937Z,1011.68
2017-05-24T01:03:01.961Z,1011.67
2017-05-24T01:04:01.984Z,1011.63
2017-05-24T01:05:02.008Z,1011.66
2017-05-24T01:06:02.032Z,1011.72
2017-05-24T01:07:02.056Z,1011.73
2017-05-24T01:08:02.079Z,1011.73
2017-05-24T01:09:02.102Z,1011.73
2017-05-24T01:10:02.126Z,1011.64
2017-05-24T01:11:02.150Z,1011.74
2017-05-24T01:12:02.173Z,1011.69
2017-05-24T01:13:02.196Z,1011.69
2017-05-24T01:14:02.220Z,1011.72
2017-05-24T01:15:02.242Z,1011.7
2017-05-24T01:16:02.266Z,1011.75
2017-05-24T01:17:02.290Z,1011.66
2017-05-24T01:18:02.313Z,1011.73
2017-05-24T01:19:02.336Z,1011.81
2017-05-24T01:20:02.360Z,1011.88
2017-05-24T01:21:02.383Z,1011.78
2017-05-24T01:22:02.407Z,1011.73
2017-05-24T01:23:02.430Z,1011.8
2017-05-24T01:24:02.453Z,1011.73
2017-05-24T01:25:02.477Z,1011.84
2017-05-24T01:26:02.500Z,1011.75
2017-05-24T01:28:02.547Z,1011.85
2017-05-24T01:29:02.571Z,1011.84
2017-05-24T01:30:02.593Z,1011.91
2017-05-24T01:31:02.616Z,1011.88
2017-05-24T01:32:02.640Z,1011.77
2017-05-24T01:33:02.664Z,1011.77
2017-05-24T01:34:02.685Z,1011.94
2017-05-24T01:35:02.709Z,1011.81
2017-05-24T01:36:02.735Z,1011.93
2017-05-24T01:37:02.755Z,1011.84
2017-05-24T01:38:02.779Z,1011.84
2017-05-24T01:39:02.803Z,1011.84
2017-05-24T01:40:02.827Z,1011.85
2017-05-24T01:41:02.848Z,1011.86
2017-05-24T01:42:02.872Z,1011.87
2017-05-24T01:44:02.919Z,1011.77
2017-05-24T01:45:02.941Z,1011.86
2017-05-24T01:46:02.965Z,1011.89
2017-05-24T01:47:02.989Z,1011.87
2017-05-24T01:48:03.011Z,1011.81
2017-05-24T01:49:03.035Z,1011.8
2017-05-24T01:50:03.058Z,1011.88
2017-05-24T01:51:03.081Z,1011.85
2017-05-24T01:52:03.104Z,1011.89
2017-05-24T01:53:03.127Z,1011.94
2017-05-24T01:54:03.150Z,1011.88
2017-05-24T01:55:03.174Z,1011.86
2017-05-24T01:56:03.196Z,1011.96
2017-05-24T01:57:03.219Z,1012.01
2017-05-24T01:58:03.243Z,1012
2017-05-24T02:00:03.288Z,1012.01
2017-05-24T02:01:03.312Z,1012.01
2017-05-24T02:02:03.334Z,1012.02
2017-05-24T02:03:03.357Z,1011.99
2017-05-24T02:04:03.380Z,1012.02
2017-05-24T02:05:03.404Z,1011.97
2017-05-24T02:06:03.427Z,1011.98
2017-05-24T02:07:03.449Z,1012.07
2017-05-24T02:08:03.473Z,1012.03
2017-05-24T02:09:03.496Z,1012.04
2017-05-24T02:10:03.518Z,1012.03
2017-05-24T02:11:03.542Z,1012.1
2017-05-24T02:12:03.564Z,1012.04
2017-05-24T02:13:03.588Z,1012.12
2017-05-24T02:14:03.610Z,1012.14
2017-05-24T02:16:03.658Z,1012.09
2017-05-24T02:17:03.680Z,1012.13
2017-05-24T02:18:03.703Z,1012.05
2017-05-24T02:19:03.726Z,1012.14
2017-05-24T02:20:03.750Z,1012.14
2017-05-24T02:21:03.771Z,1012.17
2017-05-24T02:22:03.795Z,1012.15
2017-05-24T02:23:03.817Z,1012.09
2017-05-24T02:24:03.841Z,1012.15
2017-05-24T02:25:03.863Z,1012.14
2017-05-24T02:26:03.886Z,1012.14
2017-05-24T02:27:03.909Z,1012.14
2017-05-24T02:28:03.933Z,1012.07
2017-05-24T02:29:03.956Z,1012.19
2017-05-24T02:31:04.001Z,1012.1
2017-05-24T02:32:04.024Z,1012.09
2017-05-24T02:33:04.048Z,1012.08
2017-05-24T02:34:04.071Z,1012.11
2017-05-24T02:35:04.094Z,1012.11
2017-05-24T02:36:04.115Z,1012.15
2017-05-24T02:37:04.139Z,1012.18
2017-05-24T02:38:04.163Z,1012.2
2017-05-24T02:39:04.185Z,1012.19
2017-05-24T02:40:04.208Z,1012.23
2017-05-24T02:41:04.231Z,1012.26
2017-05-24T02:42:04.255Z,1012.18
2017-05-24T02:43:04.276Z,1012.19
2017-05-24T02:44:04.299Z,1012.25
2017-05-24T02:45:04.324Z,1012.16
2017-05-24T02:46:04.346Z,1012.23
2017-05-24T02:47:04.369Z,1012.28
2017-05-24T02:48:04.392Z,1012.28
2017-05-24T02:49:04.415Z,1012.27
2017-05-24T02:50:04.436Z,1012.31
2017-05-24T02:51:04.460Z,1012.3
2017-05-24T02:52:04.483Z,1012.26
2017-05-24T02:53:04.507Z,1012.26
2017-05-24T02:54:04.545Z,1012.2
2017-05-24T02:55:04.551Z,1012.29
2017-05-24T02:56:04.574Z,1012.3
2017-05-24T02:57:04.598Z,1012.3
2017-05-24T02:58:04.620Z,1012.32
2017-05-24T02:59:04.644Z,1012.32
2017-05-24T03:00:04.667Z,1012.38
2017-05-24T03:01:04.689Z,1012.3
2017-05-24T03:03:04.735Z,1012.43
2017-05-24T03:04:04.760Z,1012.39
2017-05-24T03:05:04.780Z,1012.44
2017-05-24T03:06:04.804Z,1012.42
2017-05-24T03:07:04.827Z,1012.47
2017-05-24T03:08:04.850Z,1012.46
2017-05-24T03:09:04.873Z,1012.49
2017-05-24T03:10:04.896Z,1012.48
2017-05-24T03:11:04.919Z,1012.42
2017-05-24T03:12:04.941Z,1012.38
2017-05-24T03:13:04.964Z,1012.44
2017-05-24T03:14:04.987Z,1012.39
2017-05-24T03:15:05.010Z,1012.43
2017-05-24T03:16:05.032Z,1012.42
2017-05-24T03:17:05.055Z,1012.48
2017-05-24T03:19:05.103Z,1012.53
2017-05-24T03:20:05.124Z,1012.58
2017-05-24T03:21:05.146Z,1012.58
2017-05-24T03:22:05.170Z,1012.57
2017-05-24T03:23:05.193Z,1012.5
2017-05-24T03:24:05.215Z,1012.57
2017-05-24T03:25:05.239Z,1012.56
2017-05-24T03:26:05.261Z,1012.49
2017-05-24T03:27:05.284Z,1012.55
2017-05-24T03:28:05.308Z,1012.54
2017-05-24T03:29:05.331Z,1012.54
2017-05-24T03:30:05.357Z,1012.5
2017-05-24T03:31:05.376Z,1012.56
2017-05-24T03:32:05.398Z,1012.56
2017-05-24T03:33:05.422Z,1012.53
2017-05-24T03:35:05.467Z,1012.51
2017-05-24T03:36:05.490Z,1012.51
2017-05-24T03:37:05.514Z,1012.53
2017-05-24T03:38:05.536Z,1012.51
2017-05-24T03:39:05.559Z,1012.47
2017-05-24T03:40:05.581Z,1012.58
2017-05-24T03:41:05.606Z,1012.53
2017-05-24T03:42:05.629Z,1012.54
2017-05-24T03:43:05.651Z,1012.51
2017-05-24T03:44:05.676Z,1012.55
2017-05-24T03:45:05.697Z,1012.55
2017-05-24T03:46:05.720Z,1012.54
2017-05-24T03:47:05.743Z,1012.55
2017-05-24T03:48:05.765Z,1012.62
2017-05-24T03:49:05.789Z,1012.59
2017-05-24T03:51:05.835Z,1012.56
2017-05-24T03:52:05.859Z,1012.58
2017-05-24T03:53:05.883Z,1012.58
2017-05-24T03:54:05.906Z,1012.6
2017-05-24T03:55:05.927Z,1012.66
2017-05-24T03:56:05.950Z,1012.64
2017-05-24T03:57:05.974Z,1012.64
2017-05-24T03:58:05.997Z,1012.65
2017-05-24T03:59:06.021Z,1012.66
2017-05-24T04:00:06.043Z,1012.68
2017-05-24T04:01:06.065Z,1012.67
2017-05-24T04:02:06.088Z,1012.68
2017-05-24T04:03:06.112Z,1012.63
2017-05-24T04:04:06.135Z,1012.68
2017-05-24T04:06:06.183Z,1012.71
2017-05-24T04:07:06.205Z,1012.75
2017-05-24T04:08:06.227Z,1012.74
2017-05-24T04:09:06.251Z,1012.75
2017-05-24T04:10:06.275Z,1012.8
2017-05-24T04:11:06.297Z,1012.76
2017-05-24T04:12:06.320Z,1012.77
2017-05-24T04:13:06.344Z,1012.82
2017-05-24T04:14:06.366Z,1012.76
2017-05-24T04:15:06.390Z,1012.79
2017-05-24T04:16:06.413Z,1012.87
2017-05-24T04:17:06.436Z,1012.82
2017-05-24T04:18:06.458Z,1012.85
2017-05-24T04:19:06.480Z,1012.82
2017-05-24T04:20:06.504Z,1012.81
2017-05-24T04:21:06.528Z,1012.91
2017-05-24T04:22:06.549Z,1012.91
2017-05-24T04:23:06.574Z,1012.83
2017-05-24T04:24:06.600Z,1012.86
2017-05-24T04:25:06.619Z,1012.83
2017-05-24T04:26:06.643Z,1012.86
2017-05-24T04:27:06.665Z,1012.86
2017-05-24T04:28:06.690Z,1012.9
2017-05-24T04:29:06.711Z,1012.94
2017-05-24T04:30:06.735Z,1012.85
2017-05-24T04:31:06.758Z,1012.83
2017-05-24T04:32:06.781Z,1012.81
2017-05-24T04:33:06.803Z,1012.89
2017-05-24T04:34:06.828Z,1012.84
2017-05-24T04:35:06.849Z,1012.83
2017-05-24T04:36:06.874Z,1012.8
2017-05-24T04:38:06.918Z,1012.77
2017-05-24T04:39:06.942Z,1012.86
2017-05-24T04:40:06.964Z,1012.86
2017-05-24T04:41:06.987Z,1012.93
2017-05-24T04:42:07.011Z,1012.85
2017-05-24T04:43:07.034Z,1012.83
2017-05-24T04:44:07.056Z,1012.88
2017-05-24T04:45:07.079Z,1012.85
2017-05-24T04:46:07.102Z,1012.88
2017-05-24T04:47:07.124Z,1012.89
2017-05-24T04:48:07.148Z,1012.89
2017-05-24T04:49:07.172Z,1012.9
2017-05-24T04:50:07.196Z,1012.87
2017-05-24T04:51:07.217Z,1012.87
2017-05-24T04:52:07.239Z,1012.87
2017-05-24T04:54:07.287Z,1012.82
2017-05-24T04:55:07.308Z,1012.85
2017-05-24T04:56:07.332Z,1012.84
2017-05-24T04:57:07.355Z,1012.84
2017-05-24T04:58:07.377Z,1012.84
2017-05-24T04:59:07.401Z,1012.83
2017-05-24T05:00:07.424Z,1012.85
2017-05-24T05:01:07.446Z,1012.86
2017-05-24T05:02:07.469Z,1012.95
2017-05-24T05:03:07.492Z,1012.87
2017-05-24T05:04:07.816Z,1012.95
2017-05-24T05:05:07.540Z,1012.92
2017-05-24T05:06:07.561Z,1012.98
2017-05-24T05:07:07.585Z,1012.97
2017-05-24T05:08:07.610Z,1012.96
2017-05-24T05:10:07.654Z,1013.01
2017-05-24T05:11:07.676Z,1013.04
2017-05-24T05:12:07.699Z,1013
2017-05-24T05:13:07.722Z,1013.04
2017-05-24T05:14:07.745Z,1012.97
2017-05-24T05:15:07.769Z,1012.95
2017-05-24T05:16:07.793Z,1012.99
2017-05-24T05:17:07.814Z,1013.04
2017-05-24T05:18:07.837Z,1013.02
2017-05-24T05:19:07.862Z,1013.06
2017-05-24T05:20:07.882Z,1013.06
2017-05-24T05:21:07.905Z,1013.05
2017-05-24T05:22:07.930Z,1012.95
2017-05-24T05:23:07.953Z,1013.07
2017-05-24T05:24:07.976Z,1013
2017-05-24T05:26:08.022Z,1013.02
2017-05-24T05:27:08.045Z,1013.06
2017-05-24T05:28:08.067Z,1013.08
2017-05-24T05:29:08.090Z,1013.05
2017-05-24T05:30:08.114Z,1013.08
2017-05-24T05:31:08.137Z,1013.03
2017-05-24T05:32:08.160Z,1013.05
2017-05-24T05:33:08.183Z,1013.06
2017-05-24T05:34:08.205Z,1013.1
2017-05-24T05:35:08.229Z,1013.12
2017-05-24T05:36:08.251Z,1013.07
2017-05-24T05:37:08.275Z,1013.09
2017-05-24T05:38:08.300Z,1013.1
2017-05-24T05:39:08.323Z,1013.1
2017-05-24T05:41:08.369Z,1013.17
2017-05-24T05:42:08.391Z,1013.14
2017-05-24T05:43:08.414Z,1013.17
2017-05-24T05:44:08.438Z,1013.16
2017-05-24T05:45:08.461Z,1013.22
2017-05-24T05:46:08.483Z,1013.21
2017-05-24T05:47:08.507Z,1013.22
2017-05-24T05:48:08.530Z,1013.2
2017-05-24T05:49:08.553Z,1013.2
2017-05-24T05:50:08.577Z,1013.23
2017-05-24T05:51:08.601Z,1013.25
2017-05-24T05:52:08.637Z,1013.29
2017-05-24T05:53:08.645Z,1013.27
2017-05-24T05:54:08.670Z,1013.33
2017-05-24T05:55:08.692Z,1013.24
2017-05-24T05:56:08.716Z,1013.27
2017-05-24T05:57:08.738Z,1013.29
2017-05-24T05:58:08.762Z,1013.34
2017-05-24T05:59:08.784Z,1013.27
2017-05-24T06:00:08.807Z,1013.38
2017-05-24T06:01:08.831Z,1013.35
2017-05-24T06:02:08.854Z,1013.32
2017-05-24T06:03:08.877Z,1013.36
2017-05-24T06:04:08.900Z,1013.35
2017-05-24T06:05:08.922Z,1013.29
2017-05-24T06:06:08.947Z,1013.35
2017-05-24T06:07:08.969Z,1013.31
2017-05-24T06:08:08.992Z,1013.37
2017-05-24T06:09:09.015Z,1013.28
2017-05-24T06:10:09.038Z,1013.31
2017-05-24T06:11:09.061Z,1013.3
2017-05-24T06:13:09.108Z,1013.37
2017-05-24T06:14:09.132Z,1013.31
2017-05-24T06:15:09.153Z,1013.42
2017-05-24T06:16:09.176Z,1013.39
2017-05-24T06:17:09.201Z,1013.38
2017-05-24T06:18:09.224Z,1013.42
2017-05-24T06:19:09.246Z,1013.42
2017-05-24T06:20:09.269Z,1013.39
2017-05-24T06:21:09.292Z,1013.49
2017-05-24T06:22:09.314Z,1013.45
2017-05-24T06:23:09.338Z,1013.54
2017-05-24T06:24:09.362Z,1013.5
2017-05-24T06:25:09.385Z,1013.5
2017-05-24T06:26:09.407Z,1013.5
2017-05-24T06:27:09.431Z,1013.52
2017-05-24T06:29:09.477Z,1013.59
2017-05-24T06:30:09.498Z,1013.48
2017-05-24T06:31:09.522Z,1013.53
2017-05-24T06:32:09.547Z,1013.54
2017-05-24T06:33:09.568Z,1013.58
2017-05-24T06:34:09.591Z,1013.58
2017-05-24T06:35:09.614Z,1013.55
2017-05-24T06:36:09.637Z,1013.6
2017-05-24T06:37:09.658Z,1013.57
2017-05-24T06:38:09.683Z,1013.64
2017-05-24T06:39:09.707Z,1013.51
2017-05-24T06:40:09.730Z,1013.62
2017-05-24T06:41:09.752Z,1013.57
2017-05-24T06:42:09.778Z,1013.59
2017-05-24T06:43:09.798Z,1013.6
2017-05-24T06:45:09.844Z,1013.62
2017-05-24T06:46:09.868Z,1013.63
2017-05-24T06:47:09.891Z,1013.63
2017-05-24T06:48:09.913Z,1013.67
2017-05-24T06:49:09.937Z,1013.64
2017-05-24T06:50:09.959Z,1013.69
2017-05-24T06:51:09.983Z,1013.7
2017-05-24T06:52:10.005Z,1013.77
2017-05-24T06:53:10.029Z,1013.71
2017-05-24T06:54:10.052Z,1013.69
2017-05-24T06:55:10.075Z,1013.75
2017-05-24T06:56:10.099Z,1013.71
2017-05-24T06:57:10.122Z,1013.77
2017-05-24T06:58:10.146Z,1013.75
2017-05-24T06:59:10.169Z,1013.76
2017-05-24T07:01:10.216Z,1013.74
2017-05-24T07:02:10.239Z,1013.76
2017-05-24T07:03:10.262Z,1013.72
2017-05-24T07:04:10.286Z,1013.8
2017-05-24T07:05:10.309Z,1013.75
2017-05-24T07:06:10.332Z,1013.72
2017-05-24T07:07:10.357Z,1013.72
2017-05-24T07:08:10.379Z,1013.77
2017-05-24T07:09:10.404Z,1013.77
2017-05-24T07:10:10.426Z,1013.78
2017-05-24T07:11:10.450Z,1013.72
2017-05-24T07:12:10.473Z,1013.82
2017-05-24T07:13:10.498Z,1015.36
2017-05-24T07:14:10.521Z,1013.76
2017-05-24T07:16:10.570Z,1013.85
2017-05-24T07:17:10.594Z,1013.78
2017-05-24T07:18:10.617Z,1013.79
2017-05-24T07:19:10.642Z,1013.84
2017-05-24T07:20:10.667Z,1013.86
2017-05-24T07:21:10.692Z,1013.83
2017-05-24T07:22:10.714Z,1013.82
2017-05-24T07:23:10.739Z,1013.79
2017-05-24T07:24:10.763Z,1013.8
2017-05-24T07:25:10.788Z,1013.74
2017-05-24T07:26:10.813Z,1013.76
2017-05-24T07:27:10.837Z,1013.76
2017-05-24T07:28:10.861Z,1013.63
2017-05-24T07:29:10.886Z,1013.68
2017-05-24T07:30:10.911Z,1013.68
2017-05-24T07:31:10.936Z,1013.68
2017-05-24T07:32:10.959Z,1013.67
2017-05-24T07:33:10.984Z,1013.74
2017-05-24T07:34:11.009Z,1013.88
2017-05-24T07:35:11.034Z,1013.76
2017-05-24T07:36:11.058Z,1013.77
2017-05-24T07:37:11.083Z,1013.75
2017-05-24T07:38:11.113Z,1013.76
2017-05-24T07:39:11.132Z,1013.76
2017-05-24T07:40:11.157Z,1013.68
2017-05-24T07:41:11.181Z,1013.73
2017-05-24T07:42:11.206Z,1013.72
2017-05-24T07:43:11.230Z,1013.73
2017-05-24T07:44:11.255Z,1013.73
2017-05-24T07:45:11.280Z,1013.8
2017-05-24T07:46:11.304Z,1013.72
2017-05-24T07:48:11.355Z,1013.8
2017-05-24T07:49:11.379Z,1013.65
2017-05-24T07:50:11.403Z,1013.78
2017-05-24T07:51:11.428Z,1013.85
2017-05-24T07:52:11.453Z,1013.65
2017-05-24T07:53:11.478Z,1013.78
2017-05-24T07:54:11.502Z,1013.73
2017-05-24T07:55:11.526Z,1013.72
2017-05-24T07:56:11.551Z,1013.8
2017-05-24T07:57:11.574Z,1013.79
2017-05-24T07:58:11.600Z,1013.81
2017-05-24T07:59:11.625Z,1013.98
2017-05-24T08:00:11.650Z,1013.86
2017-05-24T08:01:11.674Z,1013.86
2017-05-24T08:02:11.699Z,1013.89
2017-05-24T08:04:11.749Z,1013.89
2017-05-24T08:05:11.772Z,1013.89
2017-05-24T08:06:11.796Z,1013.94
2017-05-24T08:07:11.822Z,1013.92
2017-05-24T08:08:11.846Z,1013.92
2017-05-24T08:09:11.871Z,1013.95
2017-05-24T08:10:11.895Z,1013.97
2017-05-24T08:11:11.919Z,1013.95
2017-05-24T08:12:11.943Z,1013.92
2017-05-24T08:13:11.969Z,1013.95
2017-05-24T08:14:11.994Z,1013.91
2017-05-24T08:15:12.018Z,1014.01
2017-05-24T08:16:12.042Z,1013.99
2017-05-24T08:17:12.066Z,1013.98
2017-05-24T08:18:12.091Z,1014.07
2017-05-24T08:20:12.139Z,1014.08
2017-05-24T08:21:12.164Z,1014.01
2017-05-24T08:22:12.190Z,1014.06
2017-05-24T08:23:12.212Z,1014.03
2017-05-24T08:24:12.237Z,1014.02
2017-05-24T08:25:12.264Z,1014.08
2017-05-24T08:26:12.286Z,1014.06
2017-05-24T08:27:12.310Z,1014.11
2017-05-24T08:28:12.334Z,1014.18
2017-05-24T08:29:12.359Z,1014.18
2017-05-24T08:30:12.385Z,1014.15
2017-05-24T08:31:12.411Z,1014.13
2017-05-24T08:32:12.432Z,1014.17
2017-05-24T08:33:12.457Z,1014.13
2017-05-24T08:34:12.481Z,1014.11
2017-05-24T08:36:12.530Z,1014.22
2017-05-24T08:37:12.555Z,1014.24
2017-05-24T08:38:12.578Z,1014.23
2017-05-24T08:39:12.603Z,1014.24
2017-05-24T08:40:12.627Z,1014.19
2017-05-24T08:41:12.651Z,1014.26
2017-05-24T08:42:12.675Z,1014.19
2017-05-24T08:43:12.700Z,1014.24
2017-05-24T08:44:12.724Z,1014.25
2017-05-24T08:45:12.748Z,1014.27
2017-05-24T08:46:12.773Z,1014.3
2017-05-24T08:47:12.796Z,1014.3
2017-05-24T08:48:12.821Z,1014.28
2017-05-24T08:49:12.846Z,1014.31
2017-05-24T08:51:12.895Z,1014.27
2017-05-24T08:52:12.919Z,1014.3
2017-05-24T08:53:12.943Z,1014.3
2017-05-24T08:54:12.968Z,1014.33
2017-05-24T08:55:12.994Z,1014.34
2017-05-24T08:56:13.015Z,1014.35
2017-05-24T08:57:13.040Z,1014.28
2017-05-24T08:58:13.065Z,1014.37
2017-05-24T08:59:13.088Z,1014.39
2017-05-24T09:00:13.113Z,1014.37
2017-05-24T09:01:13.137Z,1014.42
2017-05-24T09:02:13.162Z,1014.37
2017-05-24T09:03:13.185Z,1014.29
2017-05-24T09:04:13.209Z,1014.37
2017-05-24T09:05:13.234Z,1014.42
2017-05-24T09:06:13.258Z,1014.37
2017-05-24T09:07:13.281Z,1014.36
2017-05-24T09:08:13.306Z,1014.24
2017-05-24T09:09:13.330Z,1014.34
2017-05-24T09:10:13.353Z,1014.4
2017-05-24T09:11:13.379Z,1014.34
2017-05-24T09:12:13.402Z,1014.47
2017-05-24T09:13:13.428Z,1014.32
2017-05-24T09:14:13.450Z,1014.33
2017-05-24T09:15:13.474Z,1014.32
2017-05-24T09:16:13.500Z,1014.34
2017-05-24T09:17:13.523Z,1014.25
2017-05-24T09:18:13.548Z,1014.32
2017-05-24T09:19:13.572Z,1014.28
2017-05-24T09:20:13.599Z,1014.3
2017-05-24T09:21:13.621Z,1014.31
2017-05-24T09:23:13.670Z,1014.35
2017-05-24T09:24:13.696Z,1014.39
2017-05-24T09:25:13.718Z,1014.37
2017-05-24T09:26:13.743Z,1014.34
2017-05-24T09:27:13.768Z,1014.34
2017-05-24T09:28:13.793Z,1014.37
2017-05-24T09:29:13.816Z,1014.3
2017-05-24T09:30:13.840Z,1014.31
2017-05-24T09:31:13.866Z,1014.27
2017-05-24T09:32:13.890Z,1014.34
2017-05-24T09:33:13.916Z,1014.31
2017-05-24T09:34:13.940Z,1014.36
2017-05-24T09:35:13.966Z,1014.24
2017-05-24T09:36:13.989Z,1014.4
2017-05-24T09:37:14.014Z,1014.43
2017-05-24T09:39:14.064Z,1014.44
2017-05-24T09:40:14.088Z,1014.45
2017-05-24T09:41:14.113Z,1014.47
2017-05-24T09:42:14.138Z,1014.48
2017-05-24T09:43:14.162Z,1014.46
2017-05-24T09:44:14.187Z,1014.47
2017-05-24T09:45:14.211Z,1014.4
2017-05-24T09:46:14.236Z,1014.46
2017-05-24T09:47:14.260Z,1014.47
2017-05-24T09:48:14.284Z,1014.47
2017-05-24T09:49:14.309Z,1014.43
2017-05-24T09:50:14.334Z,1014.43
2017-05-24T09:51:14.358Z,1014.46
2017-05-24T09:52:14.387Z,1014.43
2017-05-24T09:53:14.408Z,1014.53
2017-05-24T09:55:14.456Z,1014.53
2017-05-24T09:56:14.481Z,1014.45
2017-05-24T09:57:14.506Z,1014.45
2017-05-24T09:58:14.531Z,1014.43
2017-05-24T09:59:14.554Z,1014.48
2017-05-24T10:00:14.579Z,1014.58
2017-05-24T10:01:14.603Z,1014.54
2017-05-24T10:02:14.626Z,1014.51
2017-05-24T10:03:14.652Z,1014.56
2017-05-24T10:04:14.676Z,1014.56
2017-05-24T10:05:14.701Z,1014.46
2017-05-24T10:06:14.725Z,1014.54
2017-05-24T10:07:14.750Z,1014.6
2017-05-24T10:08:14.774Z,1014.58
2017-05-24T10:09:14.799Z,1014.58
2017-05-24T10:11:14.847Z,1014.59
2017-05-24T10:12:14.873Z,1014.58
2017-05-24T10:13:14.896Z,1014.6
2017-05-24T10:14:14.920Z,1014.63
2017-05-24T10:15:14.944Z,1014.61
2017-05-24T10:16:14.969Z,1014.65
2017-05-24T10:17:14.993Z,1014.59
2017-05-24T10:18:15.019Z,1014.66
2017-05-24T10:19:15.044Z,1014.6
2017-05-24T10:20:15.130Z,1014.65
2017-05-24T10:21:15.091Z,1014.68
2017-05-24T10:22:15.116Z,1014.64
2017-05-24T10:23:15.140Z,1014.7
2017-05-24T10:24:15.166Z,1014.62
2017-05-24T10:26:15.215Z,1014.66
2017-05-24T10:27:15.239Z,1014.66
2017-05-24T10:28:15.263Z,1014.67
2017-05-24T10:29:15.289Z,1014.65
2017-05-24T10:30:15.314Z,1014.61
2017-05-24T10:31:15.337Z,1014.64
2017-05-24T10:32:15.363Z,1014.58
2017-05-24T10:33:15.388Z,1014.71
2017-05-24T10:34:15.413Z,1014.65
2017-05-24T10:35:15.437Z,1014.67
2017-05-24T10:36:15.462Z,1014.63
2017-05-24T10:37:15.488Z,1014.59
2017-05-24T10:38:15.512Z,1014.58
2017-05-24T10:39:15.537Z,1014.63
2017-05-24T10:40:15.563Z,1014.6
2017-05-24T10:41:15.589Z,1014.65
2017-05-24T10:42:15.612Z,1014.61
2017-05-24T10:43:15.638Z,1014.57
2017-05-24T10:44:15.666Z,1014.54
2017-05-24T10:45:15.688Z,1014.52
2017-05-24T10:46:15.714Z,1014.6
2017-05-24T10:47:15.738Z,1014.61
2017-05-24T10:48:15.764Z,1014.8
2017-05-24T10:49:15.789Z,1014.54
2017-05-24T10:50:15.814Z,1014.74
2017-05-24T10:51:15.840Z,1014.65
2017-05-24T10:52:15.864Z,1014.68
2017-05-24T10:53:15.889Z,1014.64
2017-05-24T10:54:15.915Z,1014.68
2017-05-24T10:55:15.941Z,1014.6
2017-05-24T10:56:15.965Z,1014.66
2017-05-24T10:58:16.015Z,1014.57
2017-05-24T10:59:16.041Z,1014.65
2017-05-24T11:00:16.066Z,1014.64
2017-05-24T11:01:16.091Z,1014.63
2017-05-24T11:02:16.117Z,1014.68
2017-05-24T11:03:16.142Z,1014.69
2017-05-24T11:04:16.167Z,1014.68
2017-05-24T11:05:16.192Z,1014.73
2017-05-24T11:06:16.216Z,1014.71
2017-05-24T11:07:16.241Z,1014.7
2017-05-24T11:08:16.266Z,1014.64
2017-05-24T11:09:16.291Z,1014.61
2017-05-24T11:10:16.316Z,1014.62
2017-05-24T11:11:16.341Z,1014.68
2017-05-24T11:12:16.366Z,1014.68
2017-05-24T11:14:16.416Z,1014.68
2017-05-24T11:15:16.439Z,1014.62
2017-05-24T11:16:16.465Z,1014.66
2017-05-24T11:17:16.490Z,1014.66
2017-05-24T11:18:16.554Z,1014.66
2017-05-24T11:19:16.539Z,1014.69
2017-05-24T11:20:16.564Z,1014.73
2017-05-24T11:21:16.589Z,1014.76
2017-05-24T11:22:16.613Z,1014.75
2017-05-24T11:23:16.639Z,1014.76
2017-05-24T11:24:16.664Z,1014.65
2017-05-24T11:25:16.689Z,1014.73
2017-05-24T11:26:16.714Z,1014.61
2017-05-24T11:27:16.737Z,1014.68
2017-05-24T11:28:16.764Z,1014.61
2017-05-24T11:30:16.813Z,1014.64
2017-05-24T11:31:16.838Z,1014.61
2017-05-24T11:32:16.863Z,1014.56
2017-05-24T11:33:16.888Z,1014.57
2017-05-24T11:34:16.913Z,1014.58
2017-05-24T11:35:16.938Z,1014.55
2017-05-24T11:36:16.964Z,1014.61
2017-05-24T11:37:16.988Z,1014.61
2017-05-24T11:38:17.014Z,1014.58
2017-05-24T11:39:17.040Z,1014.58
2017-05-24T11:40:17.063Z,1014.55
2017-05-24T11:41:17.089Z,1014.52
2017-05-24T11:42:17.114Z,1014.47
2017-05-24T11:43:17.141Z,1014.53
2017-05-24T11:44:17.164Z,1014.57
2017-05-24T11:46:17.233Z,1014.5
2017-05-24T11:47:17.242Z,1014.52
2017-05-24T11:48:17.267Z,1014.46
2017-05-24T11:49:17.292Z,1014.5
2017-05-24T11:50:17.318Z,1014.49
2017-05-24T11:51:17.343Z,1014.47
2017-05-24T11:52:17.369Z,1014.43
2017-05-24T11:53:17.394Z,1014.4
2017-05-24T11:54:17.421Z,1014.36
2017-05-24T11:55:17.446Z,1014.42
2017-05-24T11:56:17.472Z,1014.51
2017-05-24T11:57:17.498Z,1014.43
2017-05-24T11:58:17.524Z,1014.38
2017-05-24T11:59:17.549Z,1014.36
2017-05-24T12:01:17.605Z,1014.25
2017-05-24T12:02:17.627Z,1014.3
2017-05-24T12:03:17.653Z,1014.25
2017-05-24T12:04:17.679Z,1014.26
2017-05-24T12:05:17.706Z,1014.25
2017-05-24T12:06:17.730Z,1014.29
2017-05-24T12:07:17.757Z,1014.21
2017-05-24T12:08:17.783Z,1014.14
2017-05-24T12:09:17.808Z,1014.15
2017-05-24T12:10:17.833Z,1014.15
2017-05-24T12:11:17.863Z,1014.21
2017-05-24T12:12:17.887Z,1014.2
2017-05-24T12:13:17.911Z,1014.28
2017-05-24T12:14:17.937Z,1014.24
2017-05-24T12:15:17.963Z,1014.21
2017-05-24T12:16:17.989Z,1014.19
2017-05-24T12:17:18.015Z,1014.23
2017-05-24T12:18:18.041Z,1014.17
2017-05-24T12:19:18.068Z,1014.17
2017-05-24T12:20:18.156Z,1014.15
2017-05-24T12:21:18.118Z,1014.2
2017-05-24T12:22:18.147Z,1014.25
2017-05-24T12:23:18.171Z,1014.22
2017-05-24T12:24:18.199Z,1014.16
2017-05-24T12:25:18.222Z,1014.21
2017-05-24T12:26:18.248Z,1014.27
2017-05-24T12:27:18.275Z,1014.27
2017-05-24T12:28:18.300Z,1014.25
2017-05-24T12:29:18.326Z,1014.22
2017-05-24T12:30:18.352Z,1014.18
2017-05-24T12:31:18.378Z,1014.19
2017-05-24T12:33:18.430Z,1014.22
2017-05-24T12:34:18.456Z,1014.28
2017-05-24T12:35:18.482Z,1014.27
2017-05-24T12:36:18.508Z,1014.18
2017-05-24T12:37:18.533Z,1014.14
2017-05-24T12:38:18.561Z,1014.18
2017-05-24T12:39:18.585Z,1014.26
2017-05-24T12:40:18.611Z,1014.3
2017-05-24T12:41:18.638Z,1014.24
2017-05-24T12:42:18.664Z,1014.19
2017-05-24T12:43:18.690Z,1014.31
2017-05-24T12:44:18.716Z,1014.29
2017-05-24T12:45:18.743Z,1014.27
2017-05-24T12:46:18.769Z,1014.32
2017-05-24T12:47:18.795Z,1014.27
2017-05-24T12:49:18.848Z,1014.3